| time (UTC) | temp F | wind direction | speed MPH | gust MPH | rain 1hr in | rain 24hr in | rain mn in | humidity % | barometer mb |
| 20260504151119 | 67 | 199 | 6.0 | 12.0 | 0.00 | 0.00 | 0.00 | 42 | 1013.9 |
| 20260504150507 | 67 | 236 | 5.0 | 11.0 | 0.00 | 0.00 | 0.00 | 50 | 1013.9 |
| 20260504150108 | 67 | 210 | 1.0 | 10.0 | 0.00 | 0.00 | 0.00 | 47 | 1013.9 |
| 20260504141115 | 63 | 219 | 4.0 | 11.0 | 0.00 | 0.00 | 0.00 | 46 | 1013.8 |
| 20260504140505 | 62 | 202 | 5.0 | 11.0 | 0.00 | 0.00 | 0.00 | 47 | 1013.8 |
| 20260504140132 | 62 | 190 | 5.0 | 11.0 | 0.00 | 0.00 | 0.00 | 51 | 1013.8 |
| 20260504130504 | 57 | 215 | 1.0 | 8.0 | 0.00 | 0.00 | 0.00 | 61 | 1014.4 |
| 20260504120120 | 52 | 360 | 2.0 | 6.0 | 0.00 | 0.00 | 0.00 | 69 | 1014.6 |
| 20260504110521 | 48 | 360 | 1.0 | 6.0 | 0.00 | 0.00 | 0.00 | 79 | 1014.8 |
| 20260504110118 | 47 | 360 | 2.0 | 5.0 | 0.00 | 0.00 | 0.00 | 79 | 1014.8 |
| 20260504100515 | 46 | 360 | 1.0 | 4.0 | 0.00 | 0.00 | 0.00 | 79 | 1014.6 |
| 20260504100115 | 46 | 360 | 1.0 | 4.0 | 0.00 | 0.00 | 0.00 | 81 | 1014.6 |
| 20260504090127 | 47 | 360 | 1.0 | 4.0 | 0.00 | 0.00 | 0.00 | 79 | 1015.0 |
| 20260504081619 | 47 | 360 | 0.0 | 2.0 | 0.00 | 0.00 | 0.00 | 79 | 1015.1 |
| 20260504081118 | 47 | 360 | 0.0 | 2.0 | 0.00 | 0.00 | 0.00 | 80 | 1015.1 |
| 20260504080507 | 47 | 360 | 0.0 | 1.0 | 0.00 | 0.00 | 0.00 | 82 | 1015.1 |
| 20260504080106 | 47 | 360 | 0.0 | 2.0 | 0.00 | 0.00 | 0.00 | 81 | 1015.1 |
| 20260504060115 | 44 | 360 | 0.0 | 0.0 | 0.00 | 0.00 | 0.00 | 88 | 1015.6 |
| 20260504050516 | 42 | 360 | 0.0 | 2.0 | 0.00 | 0.00 | 0.00 | 85 | 1015.6 |
| 20260504050141 | 42 | 360 | 0.0 | 2.0 | 0.00 | 0.00 | 0.00 | 86 | 1015.6 |
| 20260504045614 | 42 | 360 | 0.0 | 0.0 | 0.00 | 0.00 | 0.00 | 86 | 1015.6 |
| 20260504045113 | 42 | 360 | 0.0 | 0.0 | 0.00 | 0.00 | 0.00 | 86 | 1015.6 |
| 20260504044619 | 42 | 360 | 0.0 | 0.0 | 0.00 | 0.00 | 0.00 | 85 | 1015.6 |
| 20260504044119 | 42 | 360 | 0.0 | 3.0 | 0.00 | 0.00 | 0.00 | 84 | 1015.6 |
| 20260504043621 | 42 | 360 | 0.0 | 3.0 | 0.00 | 0.00 | 0.00 | 85 | 1015.6 |
| 20260504043120 | 42 | 360 | 0.0 | 2.0 | 0.00 | 0.00 | 0.00 | 85 | 1015.6 |
| 20260504042623 | 42 | 360 | 0.0 | 2.0 | 0.00 | 0.00 | 0.00 | 85 | 1015.5 |
| 20260504042009 | 43 | 360 | 0.0 | 4.0 | 0.00 | 0.00 | 0.00 | 85 | 1015.5 |
| 20260504041608 | 43 | 360 | 0.0 | 4.0 | 0.00 | 0.00 | 0.00 | 84 | 1015.5 |
| 20260504041110 | 43 | 360 | 0.0 | 3.0 | 0.00 | 0.00 | 0.00 | 84 | 1015.4 |
| 20260504040522 | 43 | 360 | 0.0 | 3.0 | 0.00 | 0.00 | 0.00 | 83 | 1015.4 |
| 20260504040007 | 43 | 360 | 0.0 | 4.0 | 0.00 | 0.00 | 0.00 | 82 | 1015.4 |
| 20260504035602 | 43 | 360 | 2.0 | 5.0 | 0.00 | 0.00 | 0.00 | 83 | 1015.6 |
| 20260504035105 | 43 | 360 | 1.0 | 5.0 | 0.00 | 0.00 | 0.00 | 83 | 1015.6 |
| 20260504034608 | 43 | 182 | 1.0 | 3.0 | 0.00 | 0.00 | 0.00 | 82 | 1015.6 |
| 20260504034111 | 43 | 360 | 1.0 | 3.0 | 0.00 | 0.00 | 0.00 | 82 | 1015.4 |
| 20260504033614 | 43 | 360 | 0.0 | 4.0 | 0.00 | 0.00 | 0.00 | 83 | 1015.4 |
| 20260504033116 | 43 | 360 | 2.0 | 4.0 | 0.00 | 0.00 | 0.00 | 82 | 1015.4 |
| 20260504032617 | 43 | 360 | 0.0 | 4.0 | 0.00 | 0.00 | 0.00 | 81 | 1015.3 |
| 20260504032006 | 43 | 360 | 1.0 | 4.0 | 0.00 | 0.00 | 0.00 | 80 | 1015.3 |
| 20260504031630 | 43 | 360 | 0.0 | 3.0 | 0.00 | 0.00 | 0.00 | 81 | 1015.3 |
| 20260504031106 | 43 | 360 | 0.0 | 3.0 | 0.00 | 0.00 | 0.00 | 79 | 1015.2 |
| 20260504030514 | 43 | 360 | 1.0 | 4.0 | 0.00 | 0.00 | 0.00 | 81 | 1015.2 |
| 20260504030114 | 43 | 360 | 1.0 | 4.0 | 0.00 | 0.00 | 0.00 | 80 | 1015.2 |
| 20260504025618 | 43 | 360 | 1.0 | 7.0 | 0.00 | 0.00 | 0.00 | 80 | 1015.1 |
| 20260504025115 | 43 | 360 | 1.0 | 3.0 | 0.00 | 0.00 | 0.00 | 78 | 1015.1 |
| 20260504024615 | 43 | 360 | 0.0 | 2.0 | 0.00 | 0.00 | 0.00 | 78 | 1015.1 |
| 20260504024121 | 43 | 360 | 0.0 | 0.0 | 0.00 | 0.00 | 0.00 | 77 | 1015.1 |
| 20260504023619 | 44 | 360 | 0.0 | 0.0 | 0.00 | 0.00 | 0.00 | 76 | 1015.1 |
| 20260504023120 | 44 | 360 | 0.0 | 0.0 | 0.00 | 0.00 | 0.00 | 76 | 1015.1 |
| 20260504022621 | 44 | 360 | 0.0 | 0.0 | 0.00 | 0.00 | 0.00 | 76 | 1015.0 |
| 20260504022122 | 44 | 360 | 0.0 | 0.0 | 0.00 | 0.00 | 0.00 | 76 | 1015.0 |
| 20260504021506 | 44 | 360 | 0.0 | 0.0 | 0.00 | 0.00 | 0.00 | 74 | 1015.0 |
| 20260504021106 | 45 | 360 | 0.0 | 0.0 | 0.00 | 0.00 | 0.00 | 73 | 1014.9 |
| 20260504020515 | 45 | 360 | 0.0 | 0.0 | 0.00 | 0.00 | 0.00 | 73 | 1014.9 |
| 20260504020115 | 45 | 360 | 0.0 | 0.0 | 0.00 | 0.00 | 0.00 | 72 | 1014.9 |
| 20260504015617 | 45 | 360 | 0.0 | 0.0 | 0.00 | 0.00 | 0.00 | 71 | 1014.7 |
| 20260504015118 | 45 | 360 | 0.0 | 0.0 | 0.00 | 0.00 | 0.00 | 70 | 1014.7 |
| 20260504014621 | 46 | 360 | 0.0 | 0.0 | 0.00 | 0.00 | 0.00 | 69 | 1014.7 |
| 20260504014008 | 46 | 360 | 0.0 | 0.0 | 0.00 | 0.00 | 0.00 | 69 | 1014.6 |
| 20260504013607 | 47 | 360 | 0.0 | 0.0 | 0.00 | 0.00 | 0.00 | 69 | 1014.6 |
| 20260504013113 | 47 | 360 | 0.0 | 0.0 | 0.00 | 0.00 | 0.00 | 70 | 1014.6 |
| 20260504012607 | 48 | 360 | 0.0 | 0.0 | 0.00 | 0.00 | 0.00 | 68 | 1014.6 |
| 20260504012110 | 48 | 360 | 0.0 | 0.0 | 0.00 | 0.00 | 0.00 | 67 | 1014.6 |
| 20260504011608 | 49 | 360 | 0.0 | 0.0 | 0.00 | 0.00 | 0.00 | 64 | 1014.6 |
| 20260504011110 | 49 | 360 | 0.0 | 0.0 | 0.00 | 0.00 | 0.00 | 63 | 1014.6 |
| 20260504010523 | 50 | 360 | 0.0 | 0.0 | 0.00 | 0.00 | 0.00 | 64 | 1014.6 |
| 20260504010003 | 50 | 360 | 0.0 | 0.0 | 0.00 | 0.00 | 0.00 | 62 | 1014.6 |
| 20260504005603 | 50 | 360 | 0.0 | 0.0 | 0.00 | 0.00 | 0.00 | 61 | 1014.5 |
| 20260504005106 | 50 | 360 | 0.0 | 0.0 | 0.00 | 0.00 | 0.00 | 60 | 1014.5 |
| 20260504004605 | 50 | 360 | 0.0 | 0.0 | 0.00 | 0.00 | 0.00 | 58 | 1014.5 |
| 20260504004107 | 51 | 360 | 0.0 | 0.0 | 0.00 | 0.00 | 0.00 | 58 | 1014.4 |
| 20260504003607 | 51 | 360 | 0.0 | 0.0 | 0.00 | 0.00 | 0.00 | 57 | 1014.4 |
| 20260504003114 | 52 | 360 | 0.0 | 0.0 | 0.00 | 0.00 | 0.00 | 54 | 1014.4 |
| 20260504002619 | 52 | 360 | 0.0 | 0.0 | 0.00 | 0.00 | 0.00 | 53 | 1014.4 |
| 20260504002118 | 53 | 360 | 0.0 | 4.0 | 0.00 | 0.00 | 0.00 | 54 | 1014.4 |
| 20260504001618 | 53 | 360 | 0.0 | 4.0 | 0.00 | 0.00 | 0.00 | 51 | 1014.4 |
| 20260504001120 | 54 | 360 | 0.0 | 2.0 | 0.00 | 0.00 | 0.00 | 52 | 1014.1 |
| 20260504000513 | 54 | 360 | 0.0 | 2.0 | 0.00 | 0.00 | 0.00 | 51 | 1014.1 |
| 20260504000113 | 54 | 360 | 0.0 | 2.0 | 0.00 | 0.00 | 0.00 | 51 | 1014.1 |
| 20260503235614 | 55 | 360 | 0.0 | 2.0 | 0.00 | 0.00 | 0.00 | 53 | 1014.1 |
| 20260503235117 | 55 | 360 | 0.0 | 2.0 | 0.00 | 0.00 | 0.00 | 49 | 1014.1 |
| 20260503234618 | 56 | 360 | 0.0 | 2.0 | 0.00 | 0.00 | 0.00 | 50 | 1014.1 |
| 20260503234120 | 56 | 360 | 0.0 | 2.0 | 0.00 | 0.00 | 0.00 | 51 | 1014.0 |
| 20260503233618 | 57 | 360 | 0.0 | 3.0 | 0.00 | 0.00 | 0.00 | 46 | 1014.0 |
| 20260503233119 | 57 | 360 | 0.0 | 5.0 | 0.00 | 0.00 | 0.00 | 45 | 1014.0 |
| 20260503232623 | 58 | 360 | 1.0 | 5.0 | 0.00 | 0.00 | 0.00 | 47 | 1013.9 |
| 20260503232004 | 58 | 316 | 1.0 | 5.0 | 0.00 | 0.00 | 0.00 | 45 | 1013.9 |
| 20260503231604 | 58 | 297 | 2.0 | 5.0 | 0.00 | 0.00 | 0.00 | 47 | 1013.9 |
| 20260503231109 | 59 | 322 | 1.0 | 7.0 | 0.00 | 0.00 | 0.00 | 42 | 1013.7 |
| 20260503230520 | 59 | 355 | 2.0 | 7.0 | 0.00 | 0.00 | 0.00 | 41 | 1013.7 |
| 20260503230008 | 59 | 313 | 2.0 | 8.0 | 0.00 | 0.00 | 0.00 | 40 | 1013.7 |
| 20260503225606 | 59 | 360 | 2.0 | 8.0 | 0.00 | 0.00 | 0.00 | 43 | 1013.8 |
| 20260503225105 | 59 | 355 | 2.0 | 6.0 | 0.00 | 0.00 | 0.00 | 40 | 1013.8 |
| 20260503224606 | 60 | 230 | 1.0 | 9.0 | 0.00 | 0.00 | 0.00 | 41 | 1013.8 |
| 20260503224106 | 60 | 48 | 2.0 | 9.0 | 0.00 | 0.00 | 0.00 | 42 | 1013.7 |
| 20260503223609 | 60 | 255 | 1.0 | 8.0 | 0.00 | 0.00 | 0.00 | 39 | 1013.7 |
| 20260503223109 | 60 | 342 | 2.0 | 11.0 | 0.00 | 0.00 | 0.00 | 38 | 1013.7 |
| 20260503222614 | 60 | 337 | 5.0 | 11.0 | 0.00 | 0.00 | 0.00 | 40 | 1013.7 |
| 20260503222115 | 60 | 355 | 3.0 | 6.0 | 0.00 | 0.00 | 0.00 | 40 | 1013.7 |
| 20260503221617 | 60 | 302 | 2.0 | 6.0 | 0.00 | 0.00 | 0.00 | 39 | 1013.7 |
| 20260503221117 | 60 | 242 | 2.0 | 13.0 | 0.00 | 0.00 | 0.00 | 38 | 1013.9 |
| 20260503220508 | 60 | 16 | 2.0 | 13.0 | 0.00 | 0.00 | 0.00 | 41 | 1013.9 |
| 20260503220107 | 60 | 223 | 4.0 | 8.0 | 0.00 | 0.00 | 0.00 | 38 | 1013.9 |
| 20260503215609 | 60 | 292 | 5.0 | 8.0 | 0.00 | 0.00 | 0.00 | 37 | 1014.0 |
| 20260503215116 | 60 | 348 | 4.0 | 8.0 | 0.00 | 0.00 | 0.00 | 40 | 1014.0 |
| 20260503214616 | 60 | 234 | 2.0 | 9.0 | 0.00 | 0.00 | 0.00 | 38 | 1014.0 |
| 20260503214023 | 61 | 246 | 3.0 | 6.0 | 0.00 | 0.00 | 0.00 | 39 | 1014.0 |
| 20260503213617 | 61 | 307 | 2.0 | 10.0 | 0.00 | 0.00 | 0.00 | 37 | 1014.0 |
| 20260503213135 | 61 | 300 | 5.0 | 10.0 | 0.00 | 0.00 | 0.00 | 36 | 1014.0 |
| 20260503212504 | 61 | 332 | 3.0 | 9.0 | 0.00 | 0.00 | 0.00 | 40 | 1014.0 |
| 20260503212103 | 61 | 314 | 3.0 | 9.0 | 0.00 | 0.00 | 0.00 | 38 | 1014.0 |
| 20260503211622 | 61 | 322 | 3.0 | 8.0 | 0.00 | 0.00 | 0.00 | 37 | 1014.0 |
| 20260503211104 | 61 | 194 | 2.0 | 9.0 | 0.00 | 0.00 | 0.00 | 37 | 1014.1 |
| 20260503210515 | 61 | 279 | 3.0 | 12.0 | 0.00 | 0.00 | 0.00 | 36 | 1014.1 |
| 20260503210115 | 61 | 316 | 4.0 | 12.0 | 0.00 | 0.00 | 0.00 | 37 | 1014.1 |
| 20260503205615 | 62 | 303 | 4.0 | 10.0 | 0.00 | 0.00 | 0.00 | 39 | 1014.2 |
| 20260503205117 | 62 | 244 | 5.0 | 10.0 | 0.00 | 0.00 | 0.00 | 42 | 1014.2 |
| 20260503204504 | 62 | 263 | 2.0 | 11.0 | 0.00 | 0.00 | 0.00 | 36 | 1014.2 |
| 20260503204103 | 62 | 242 | 5.0 | 11.0 | 0.00 | 0.00 | 0.00 | 37 | 1014.1 |
| 20260503203604 | 62 | 340 | 3.0 | 10.0 | 0.00 | 0.00 | 0.00 | 38 | 1014.1 |
| 20260503203116 | 62 | 11 | 7.0 | 10.0 | 0.00 | 0.00 | 0.00 | 38 | 1014.1 |
| 20260503202610 | 63 | 254 | 2.0 | 6.0 | 0.00 | 0.00 | 0.00 | 41 | 1014.3 |
| 20260503202112 | 62 | 211 | 3.0 | 6.0 | 0.00 | 0.00 | 0.00 | 38 | 1014.3 |
| 20260503201616 | 63 | 259 | 2.0 | 10.0 | 0.00 | 0.00 | 0.00 | 40 | 1014.3 |
| 20260503201116 | 63 | 355 | 4.0 | 10.0 | 0.00 | 0.00 | 0.00 | 38 | 1014.6 |
| 20260503200510 | 62 | 329 | 4.0 | 9.0 | 0.00 | 0.00 | 0.00 | 43 | 1014.6 |
| 20260503200113 | 62 | 325 | 1.0 | 11.0 | 0.00 | 0.00 | 0.00 | 42 | 1014.6 |
| 20260503195612 | 61 | 11 | 3.0 | 13.0 | 0.00 | 0.00 | 0.00 | 38 | 1014.9 |
| 20260503195118 | 61 | 244 | 2.0 | 13.0 | 0.00 | 0.00 | 0.00 | 38 | 1014.9 |
| 20260503194623 | 62 | 258 | 4.0 | 13.0 | 0.00 | 0.00 | 0.00 | 40 | 1014.9 |
| 20260503194124 | 62 | 273 | 5.0 | 14.0 | 0.00 | 0.00 | 0.00 | 42 | 1015.1 |
| 20260503193506 | 61 | 259 | 4.0 | 13.0 | 0.00 | 0.00 | 0.00 | 44 | 1015.1 |
| 20260503193104 | 61 | 319 | 3.0 | 13.0 | 0.00 | 0.00 | 0.00 | 44 | 1015.1 |
| 20260503192604 | 60 | 324 | 4.0 | 12.0 | 0.00 | 0.00 | 0.00 | 44 | 1015.2 |
| 20260503192104 | 60 | 221 | 5.0 | 12.0 | 0.00 | 0.00 | 0.00 | 42 | 1015.2 |
| 20260503191614 | 61 | 323 | 5.0 | 11.0 | 0.00 | 0.00 | 0.00 | 41 | 1015.2 |
| 20260503191112 | 60 | 276 | 2.0 | 12.0 | 0.00 | 0.00 | 0.00 | 43 | 1015.3 |
| 20260503190520 | 61 | 273 | 5.0 | 12.0 | 0.00 | 0.00 | 0.00 | 39 | 1015.3 |
| 20260503190119 | 61 | 30 | 2.0 | 14.0 | 0.00 | 0.00 | 0.00 | 40 | 1015.3 |
| 20260503185620 | 62 | 217 | 2.0 | 14.0 | 0.00 | 0.00 | 0.00 | 40 | 1015.6 |
| 20260503185121 | 62 | 313 | 4.0 | 15.0 | 0.00 | 0.00 | 0.00 | 40 | 1015.6 |
| 20260503184508 | 61 | 302 | 4.0 | 15.0 | 0.00 | 0.00 | 0.00 | 47 | 1015.6 |
| 20260503184107 | 60 | 224 | 4.0 | 8.0 | 0.00 | 0.00 | 0.00 | 42 | 1015.6 |
| 20260503183609 | 59 | 62 | 2.0 | 9.0 | 0.00 | 0.00 | 0.00 | 44 | 1015.6 |
| 20260503183112 | 59 | 293 | 3.0 | 11.0 | 0.00 | 0.00 | 0.00 | 46 | 1015.6 |
| 20260503182614 | 59 | 271 | 4.0 | 11.0 | 0.00 | 0.00 | 0.00 | 44 | 1015.8 |
| 20260503182117 | 58 | 355 | 3.0 | 10.0 | 0.00 | 0.00 | 0.00 | 46 | 1015.8 |
| 20260503181617 | 59 | 221 | 4.0 | 10.0 | 0.00 | 0.00 | 0.00 | 44 | 1015.8 |
| 20260503181122 | 59 | 355 | 3.0 | 9.0 | 0.00 | 0.00 | 0.00 | 44 | 1015.8 |
| 20260503180512 | 59 | 236 | 4.0 | 7.0 | 0.00 | 0.00 | 0.00 | 46 | 1015.8 |
| 20260503180111 | 59 | 360 | 3.0 | 13.0 | 0.00 | 0.00 | 0.00 | 44 | 1015.8 |
| 20260503175616 | 59 | 360 | 4.0 | 13.0 | 0.00 | 0.00 | 0.00 | 45 | 1016.2 |
| 20260503175113 | 58 | 360 | 3.0 | 12.0 | 0.00 | 0.00 | 0.00 | 47 | 1016.2 |
| 20260503174508 | 58 | 360 | 5.0 | 13.0 | 0.00 | 0.00 | 0.00 | 48 | 1016.2 |
| 20260503174103 | 58 | 360 | 5.0 | 13.0 | 0.00 | 0.00 | 0.00 | 44 | 1016.1 |
| 20260503173605 | 58 | 360 | 4.0 | 10.0 | 0.00 | 0.00 | 0.00 | 44 | 1016.1 |
| 20260503173132 | 58 | 360 | 4.0 | 12.0 | 0.00 | 0.00 | 0.00 | 45 | 1016.1 |
| 20260503172608 | 58 | 360 | 5.0 | 13.0 | 0.00 | 0.00 | 0.00 | 43 | 1016.3 |
| 20260503172108 | 58 | 360 | 5.0 | 13.0 | 0.00 | 0.00 | 0.00 | 48 | 1016.3 |
| 20260503171612 | 58 | 360 | 5.0 | 12.0 | 0.00 | 0.00 | 0.00 | 47 | 1016.3 |
| 20260503171112 | 57 | 360 | 3.0 | 12.0 | 0.00 | 0.00 | 0.00 | 43 | 1016.4 |
| 20260503170511 | 58 | 360 | 4.0 | 18.0 | 0.00 | 0.00 | 0.00 | 47 | 1016.4 |
| 20260503170108 | 58 | 360 | 6.0 | 18.0 | 0.00 | 0.00 | 0.00 | 45 | 1016.4 |
| 20260503160113 | 56 | 360 | 6.0 | 13.0 | 0.00 | 0.00 | 0.00 | 47 | 1017.1 |